createdAt,value
2023-05-16T00:01:00.557Z,89678.47
2023-05-16T00:03:27.404Z,89671.38
2023-05-16T00:05:54.339Z,89671.56
2023-05-16T00:08:21.076Z,89672.19
2023-05-16T00:10:47.933Z,89681.47
2023-05-16T00:13:14.848Z,89679.06
2023-05-16T00:15:41.715Z,89667.13
2023-05-16T00:18:08.510Z,89674.91
2023-05-16T00:20:35.476Z,89674.41
2023-05-16T00:23:02.356Z,89673.19
2023-05-16T00:25:29.110Z,89672.47
2023-05-16T00:27:56.059Z,89669.78
2023-05-16T00:30:22.927Z,89670.81
2023-05-16T00:32:49.812Z,89671.38
2023-05-16T00:35:16.817Z,89669.00
2023-05-16T00:37:43.599Z,89668.22
2023-05-16T00:40:10.942Z,89669.22
2023-05-16T00:42:38.978Z,89667.13
2023-05-16T00:45:06.929Z,89661.38
2023-05-16T00:47:34.109Z,89660.81
2023-05-16T00:50:02.039Z,89662.72
2023-05-16T00:52:32.107Z,89663.94
2023-05-16T00:54:58.897Z,89664.66
2023-05-16T00:57:26.035Z,89667.63
2023-05-16T00:59:52.843Z,89663.25
2023-05-16T01:02:19.769Z,89661.88
2023-05-16T01:04:46.848Z,89661.19
2023-05-16T01:07:13.720Z,89656.84
2023-05-16T01:09:40.860Z,89659.81
2023-05-16T01:12:11.910Z,89649.88
2023-05-16T01:14:53.713Z,89661.53
2023-05-16T01:17:43.600Z,89656.63
2023-05-16T01:20:31.454Z,89655.47
2023-05-16T01:23:20.085Z,89644.75
2023-05-16T01:25:57.229Z,89654.72
2023-05-16T01:28:25.497Z,89653.75
2023-05-16T01:30:52.278Z,89648.88
2023-05-16T01:33:19.060Z,89645.97
2023-05-16T01:36:00.737Z,89651.56
2023-05-16T01:38:36.256Z,89655.22
2023-05-16T01:41:16.053Z,89652.53
2023-05-16T01:43:46.511Z,89648.41
2023-05-16T01:46:16.565Z,89653.03
2023-05-16T01:49:01.827Z,89647.16
2023-05-16T01:51:31.940Z,89644.22
2023-05-16T01:54:04.759Z,89647.59
2023-05-16T01:56:33.213Z,89640.50
2023-05-16T01:59:01.893Z,89646.84
2023-05-16T02:01:30.300Z,89646.84
2023-05-16T02:03:58.088Z,89648.31
2023-05-16T02:06:24.989Z,89646.88
2023-05-16T02:08:52.090Z,89639.13
2023-05-16T02:11:18.980Z,89636.94
2023-05-16T02:13:45.830Z,89637.69
2023-05-16T02:16:12.636Z,89634.50
2023-05-16T02:18:39.730Z,89634.75
2023-05-16T02:21:06.624Z,89639.16
2023-05-16T02:23:33.426Z,89638.41
2023-05-16T02:26:00.393Z,89635.00
2023-05-16T02:28:27.221Z,89635.25
2023-05-16T02:30:58.426Z,89626.28
2023-05-16T02:33:26.901Z,89627.47
2023-05-16T02:35:53.926Z,89622.09
2023-05-16T02:38:21.333Z,89626.50
2023-05-16T02:40:49.116Z,89635.97
2023-05-16T02:43:16.145Z,89631.13
2023-05-16T02:45:43.298Z,89637.19
2023-05-16T02:48:10.260Z,89637.94
2023-05-16T02:50:37.380Z,89645.00
2023-05-16T02:53:04.226Z,89650.34
2023-05-16T02:55:31.073Z,89645.25
2023-05-16T02:57:57.961Z,89646.91
2023-05-16T03:00:24.852Z,89649.81
2023-05-16T03:02:51.966Z,89651.72
2023-05-16T03:05:18.922Z,89644.94
2023-05-16T03:07:45.764Z,89656.34
2023-05-16T03:10:12.596Z,89661.72
2023-05-16T03:12:39.412Z,89649.81
2023-05-16T03:15:07.058Z,89656.16
2023-05-16T03:17:34.044Z,89655.94
2023-05-16T03:20:00.794Z,89646.66
2023-05-16T03:22:27.596Z,89654.94
2023-05-16T03:24:54.449Z,89656.63
2023-05-16T03:27:23.313Z,89654.44
2023-05-16T03:29:50.124Z,89660.53
2023-05-16T03:32:17.095Z,89661.75
2023-05-16T03:34:43.918Z,89665.66
2023-05-16T03:37:10.758Z,89666.16
2023-05-16T03:39:37.646Z,89659.34
2023-05-16T03:42:04.624Z,89674.69
2023-05-16T03:44:31.485Z,89678.25
2023-05-16T03:47:01.485Z,89673.19
2023-05-16T03:49:28.349Z,89670.56
2023-05-16T03:51:55.122Z,89669.09
2023-05-16T03:54:22.815Z,89669.03
2023-05-16T03:56:49.672Z,89668.31
2023-05-16T03:59:16.457Z,89672.94
2023-05-16T04:01:43.411Z,89676.81
2023-05-16T04:04:10.273Z,89676.50
2023-05-16T04:06:37.173Z,89686.41
2023-05-16T04:09:04.136Z,89684.88
2023-05-16T04:11:31.195Z,89679.88
2023-05-16T04:13:58.463Z,89691.25
2023-05-16T04:16:25.460Z,89690.69
2023-05-16T04:18:52.389Z,89685.69
2023-05-16T04:21:19.284Z,89684.09
2023-05-16T04:23:46.055Z,89692.75
2023-05-16T04:26:12.936Z,89690.13
2023-05-16T04:28:39.674Z,89688.38
2023-05-16T04:31:06.540Z,89695.91
2023-05-16T04:33:33.492Z,89698.78
2023-05-16T04:36:00.404Z,89695.44
2023-05-16T04:38:27.391Z,89691.94
2023-05-16T04:40:54.242Z,89690.81
2023-05-16T04:43:21.068Z,89692.66
2023-05-16T04:45:48.786Z,89688.22
2023-05-16T04:48:15.598Z,89694.34
2023-05-16T04:50:42.558Z,89686.34
2023-05-16T04:53:09.447Z,89678.03
2023-05-16T04:55:36.388Z,89677.13
2023-05-16T04:58:03.315Z,89670.06
2023-05-16T05:00:30.450Z,89670.91
2023-05-16T05:02:57.489Z,89679.53
2023-05-16T05:05:24.527Z,89688.63
2023-05-16T05:07:51.664Z,89685.06
2023-05-16T05:10:18.685Z,89684.84
2023-05-16T05:12:45.420Z,89689.50
2023-05-16T05:15:12.467Z,89686.09
2023-05-16T05:17:42.694Z,89692.22
2023-05-16T05:20:10.258Z,89683.78
2023-05-16T05:22:37.203Z,89691.66
2023-05-16T05:25:06.081Z,89686.03
2023-05-16T05:27:41.030Z,89678.00
2023-05-16T05:30:08.525Z,89686.13
2023-05-16T05:32:38.503Z,89674.28
2023-05-16T05:35:07.925Z,89673.63
2023-05-16T05:37:34.830Z,89669.09
2023-05-16T05:40:04.996Z,89673.75
2023-05-16T05:42:31.914Z,89672.44
2023-05-16T05:45:00.746Z,89681.41
2023-05-16T05:47:30.916Z,89671.38
2023-05-16T05:50:00.320Z,89669.72
2023-05-16T05:52:27.086Z,89673.91
2023-05-16T05:54:54.307Z,89668.81
2023-05-16T05:57:21.146Z,89668.47
2023-05-16T05:59:48.027Z,89672.94
2023-05-16T06:02:15.148Z,89670.06
2023-05-16T06:04:42.005Z,89663.06
2023-05-16T06:07:08.873Z,89670.59
2023-05-16T06:09:35.689Z,89660.19
2023-05-16T06:12:02.628Z,89669.88
2023-05-16T06:14:29.454Z,89661.91
2023-05-16T06:16:56.348Z,89660.66
2023-05-16T06:19:23.446Z,89658.22
2023-05-16T06:21:50.265Z,89658.63
2023-05-16T06:24:17.058Z,89664.66
2023-05-16T06:26:44.008Z,89657.25
2023-05-16T06:29:10.827Z,89653.44
2023-05-16T06:31:37.745Z,89658.22
2023-05-16T06:34:04.664Z,89653.34
2023-05-16T06:36:31.499Z,89659.66
2023-05-16T06:39:01.283Z,89656.81
2023-05-16T06:41:28.148Z,89653.69
2023-05-16T06:43:55.009Z,89659.25
2023-05-16T06:46:21.923Z,89658.78
2023-05-16T06:48:49.020Z,89658.44
2023-05-16T06:51:15.927Z,89657.06
2023-05-16T06:53:42.819Z,89642.50
2023-05-16T06:56:09.775Z,89651.63
2023-05-16T06:58:36.653Z,89645.00
2023-05-16T07:01:03.620Z,89659.28
2023-05-16T07:03:30.696Z,89653.91
2023-05-16T07:05:57.679Z,89646.88
2023-05-16T07:08:25.686Z,89636.91
2023-05-16T07:10:52.886Z,89642.97
2023-05-16T07:13:19.842Z,89643.72
2023-05-16T07:15:46.724Z,89649.34
2023-05-16T07:18:13.917Z,89645.09
2023-05-16T07:20:40.933Z,89648.81
2023-05-16T07:23:07.918Z,89649.19
2023-05-16T07:25:34.946Z,89650.59
2023-05-16T07:28:01.764Z,89645.81
2023-05-16T07:30:28.792Z,89646.44
2023-05-16T07:32:55.829Z,89653.22
2023-05-16T07:35:22.731Z,89641.44
2023-05-16T07:37:49.643Z,89646.22
2023-05-16T07:40:16.673Z,89654.38
2023-05-16T07:42:43.680Z,89646.94
2023-05-16T07:45:10.723Z,89648.38
2023-05-16T07:47:37.808Z,89654.34
2023-05-16T07:50:05.119Z,89649.63
2023-05-16T07:52:31.958Z,89650.00
2023-05-16T07:54:59.009Z,89644.59
2023-05-16T07:57:25.926Z,89643.31
2023-05-16T07:59:53.088Z,89639.88
2023-05-16T08:02:20.605Z,89635.00
2023-05-16T08:04:47.594Z,89639.50
2023-05-16T08:07:14.534Z,89630.13
2023-05-16T08:09:41.604Z,89638.25
2023-05-16T08:12:09.210Z,89633.41
2023-05-16T08:14:36.125Z,89631.94
2023-05-16T08:17:03.061Z,89621.94
2023-05-16T08:19:29.950Z,89619.19
2023-05-16T08:21:56.891Z,89628.78
2023-05-16T08:24:23.833Z,89627.22
2023-05-16T08:26:50.726Z,89628.50
2023-05-16T08:29:17.569Z,89626.31
2023-05-16T08:31:44.577Z,89622.88
2023-05-16T08:34:11.510Z,89620.66
2023-05-16T08:36:38.410Z,89627.69
2023-05-16T08:39:05.536Z,89621.19
2023-05-16T08:41:32.381Z,89624.13
2023-05-16T08:43:59.413Z,89621.44
2023-05-16T08:46:29.103Z,89628.09
2023-05-16T08:48:59.798Z,89629.38
2023-05-16T08:51:28.462Z,89621.25
2023-05-16T08:54:02.961Z,89618.72
2023-05-16T08:56:30.772Z,89609.25
2023-05-16T08:58:58.340Z,89610.81
2023-05-16T09:01:25.489Z,89610.94
2023-05-16T09:03:53.094Z,89612.09
2023-05-16T09:06:19.969Z,89613.25
2023-05-16T09:08:46.919Z,89602.75
2023-05-16T09:11:13.961Z,89605.09
2023-05-16T09:13:40.863Z,89603.13
2023-05-16T09:16:15.085Z,89604.13
2023-05-16T09:18:45.266Z,89591.09
2023-05-16T09:21:13.592Z,89591.78
2023-05-16T09:23:43.153Z,89593.41
2023-05-16T09:26:10.302Z,89596.75
2023-05-16T09:28:40.548Z,89583.06
2023-05-16T09:31:24.446Z,89594.59
2023-05-16T09:33:51.333Z,89584.53
2023-05-16T09:36:18.242Z,89586.25
2023-05-16T09:38:45.507Z,89585.72
2023-05-16T09:41:12.568Z,89575.84
2023-05-16T09:43:41.992Z,89580.69
2023-05-16T09:46:09.211Z,89576.13
2023-05-16T09:48:36.195Z,89582.06
2023-05-16T09:51:06.069Z,89579.38
2023-05-16T09:53:34.169Z,89574.28
2023-05-16T09:56:05.685Z,89573.59
2023-05-16T09:58:34.825Z,89568.81
2023-05-16T10:01:02.488Z,89575.59
2023-05-16T10:03:30.213Z,89559.63
2023-05-16T10:05:57.324Z,89555.22
2023-05-16T10:08:26.149Z,89561.66
2023-05-16T10:10:54.861Z,89554.78
2023-05-16T10:13:22.852Z,89556.47
2023-05-16T10:15:50.995Z,89549.06
2023-05-16T10:18:19.059Z,89541.19
2023-05-16T10:20:48.290Z,89548.56
2023-05-16T10:23:20.652Z,89551.91
2023-05-16T10:25:49.325Z,89552.81
2023-05-16T10:28:17.319Z,89550.00
2023-05-16T10:30:46.774Z,89551.06
2023-05-16T10:33:18.432Z,89542.56
2023-05-16T10:35:46.603Z,89547.25
2023-05-16T10:38:17.075Z,89548.41
2023-05-16T10:40:45.239Z,89542.22
2023-05-16T10:43:25.821Z,89533.25
2023-05-16T10:46:11.844Z,89536.16
2023-05-16T10:48:41.198Z,89532.50
2023-05-16T10:51:35.149Z,89527.56
2023-05-16T10:54:09.780Z,89526.72
2023-05-16T10:56:37.597Z,89517.22
2023-05-16T10:59:04.761Z,89523.66
2023-05-16T11:01:35.406Z,89517.13
2023-05-16T11:04:06.217Z,89519.19
2023-05-16T11:06:35.675Z,89514.22
2023-05-16T11:09:05.543Z,89508.94
2023-05-16T11:11:48.532Z,89514.63
2023-05-16T11:14:34.406Z,89505.41
2023-05-16T11:17:24.142Z,89508.38
2023-05-16T11:19:52.076Z,89503.19
2023-05-16T11:22:38.962Z,89502.28
2023-05-16T11:25:10.188Z,89506.63
2023-05-16T11:27:44.207Z,89501.09
2023-05-16T11:30:12.329Z,89492.53
2023-05-16T11:32:41.868Z,89494.28
2023-05-16T11:35:13.623Z,89489.47
2023-05-16T11:37:42.579Z,89480.44
2023-05-16T11:40:11.879Z,89478.81
2023-05-16T11:42:47.473Z,89482.03
2023-05-16T11:45:17.101Z,89475.47
2023-05-16T11:47:45.806Z,89473.47
2023-05-16T11:50:15.287Z,89476.72
2023-05-16T11:52:47.545Z,89470.53
2023-05-16T11:55:28.214Z,89466.13
2023-05-16T11:58:00.312Z,89468.22
2023-05-16T12:00:27.919Z,89454.88
2023-05-16T12:03:00.961Z,89464.28
2023-05-16T12:05:28.318Z,89458.31
2023-05-16T12:07:55.391Z,89463.34
2023-05-16T12:10:22.389Z,89464.63
2023-05-16T12:12:51.899Z,89450.84
2023-05-16T12:15:19.597Z,89446.38
2023-05-16T12:17:47.774Z,89447.81
2023-05-16T12:20:15.497Z,89446.94
2023-05-16T12:22:46.126Z,89444.69
2023-05-16T12:25:40.025Z,89440.19
2023-05-16T12:28:06.915Z,89439.38
2023-05-16T12:30:34.312Z,89439.72
2023-05-16T12:33:19.712Z,89432.72
2023-05-16T12:35:47.159Z,89433.31
2023-05-16T12:38:15.054Z,89431.19
2023-05-16T12:40:43.624Z,89428.19
2023-05-16T12:43:22.777Z,89428.88
2023-05-16T12:45:51.388Z,89422.88
2023-05-16T12:48:18.811Z,89420.91
2023-05-16T12:50:45.792Z,89418.75
2023-05-16T12:53:14.077Z,89415.38
2023-05-16T12:55:41.680Z,89413.13
2023-05-16T12:58:09.355Z,89417.03
2023-05-16T13:00:36.893Z,89416.50
2023-05-16T13:03:04.920Z,89410.66
2023-05-16T13:05:31.992Z,89410.81
2023-05-16T13:07:59.208Z,89415.78
2023-05-16T13:10:26.367Z,89417.69
2023-05-16T13:12:53.398Z,89415.69
2023-05-16T13:15:20.431Z,89409.00
2023-05-16T13:17:47.323Z,89409.06
2023-05-16T13:20:15.988Z,89409.59
2023-05-16T13:22:45.101Z,89407.06
2023-05-16T13:25:12.336Z,89406.59
2023-05-16T13:27:39.311Z,89409.72
2023-05-16T13:30:06.865Z,89401.78
2023-05-16T13:32:33.748Z,89391.81
2023-05-16T13:35:00.690Z,89397.63
2023-05-16T13:37:27.574Z,89386.56
2023-05-16T13:39:54.469Z,89388.34
2023-05-16T13:42:21.381Z,89385.72
2023-05-16T13:44:48.412Z,89386.22
2023-05-16T13:47:15.344Z,89387.13
2023-05-16T13:49:42.184Z,89390.28
2023-05-16T13:52:09.251Z,89386.66
2023-05-16T13:54:36.186Z,89380.94
2023-05-16T13:57:03.584Z,89377.69
2023-05-16T13:59:56.229Z,89372.66
2023-05-16T14:02:17.506Z,89382.78
2023-05-16T14:04:44.427Z,89377.53
2023-05-16T14:07:11.485Z,89367.22
2023-05-16T14:09:38.403Z,89369.66
2023-05-16T14:12:08.896Z,89369.63
2023-05-16T14:14:36.015Z,89366.03
2023-05-16T14:17:03.539Z,89360.94
2023-05-16T14:19:31.526Z,89366.63
2023-05-16T14:21:58.631Z,89373.25
2023-05-16T14:24:25.513Z,89363.56
2023-05-16T14:26:52.946Z,89363.38
2023-05-16T14:29:19.771Z,89365.81
2023-05-16T14:31:46.625Z,89359.41
2023-05-16T14:34:13.670Z,89358.41
2023-05-16T14:36:40.469Z,89346.78
2023-05-16T14:39:07.374Z,89354.28
2023-05-16T14:41:34.306Z,89348.00
2023-05-16T14:44:01.273Z,89349.28
2023-05-16T14:46:28.457Z,89353.91
2023-05-16T14:48:55.561Z,89340.38
2023-05-16T14:51:22.372Z,89343.94
2023-05-16T14:53:49.259Z,89338.53
2023-05-16T14:56:16.306Z,89353.88
2023-05-16T14:58:43.355Z,89350.53
2023-05-16T15:01:10.272Z,89344.16
2023-05-16T15:03:53.571Z,89342.13
2023-05-16T15:06:21.862Z,89344.94
2023-05-16T15:08:48.873Z,89338.22
2023-05-16T15:11:15.835Z,89335.47
2023-05-16T15:13:42.757Z,89343.91
2023-05-16T15:16:10.875Z,89337.13
2023-05-16T15:18:37.978Z,89330.72
2023-05-16T15:21:04.948Z,89335.31
2023-05-16T15:23:33.485Z,89338.63
2023-05-16T15:26:00.382Z,89334.47
2023-05-16T15:28:29.459Z,89336.38
2023-05-16T15:30:56.485Z,89333.06
2023-05-16T15:33:23.411Z,89330.16
2023-05-16T15:35:50.326Z,89330.63
2023-05-16T15:38:17.264Z,89335.19
2023-05-16T15:40:44.125Z,89336.72
2023-05-16T15:43:11.059Z,89334.94
2023-05-16T15:45:40.062Z,89329.09
2023-05-16T15:48:07.816Z,89328.06
2023-05-16T15:50:35.044Z,89323.53
2023-05-16T15:53:02.190Z,89333.44
2023-05-16T15:55:29.490Z,89322.00
2023-05-16T15:57:57.510Z,89323.31
2023-05-16T16:00:25.284Z,89321.84
2023-05-16T16:02:52.737Z,89325.81
2023-05-16T16:05:19.643Z,89325.41
2023-05-16T16:07:46.502Z,89323.19
2023-05-16T16:10:13.662Z,89316.28
2023-05-16T16:12:40.545Z,89328.66
2023-05-16T16:15:09.698Z,89329.88
2023-05-16T16:17:36.938Z,89325.56
2023-05-16T16:20:04.229Z,89320.91
2023-05-16T16:22:31.308Z,89322.75
2023-05-16T16:24:58.185Z,89325.00
2023-05-16T16:27:25.072Z,89328.75
2023-05-16T16:29:52.008Z,89321.63
2023-05-16T16:32:18.872Z,89323.47
2023-05-16T16:34:45.787Z,89324.03
2023-05-16T16:37:12.767Z,89326.75
2023-05-16T16:39:39.774Z,89319.00
2023-05-16T16:42:07.057Z,89331.53
2023-05-16T16:44:34.088Z,89327.75
2023-05-16T16:47:01.130Z,89327.25
2023-05-16T16:49:28.138Z,89327.38
2023-05-16T16:51:55.073Z,89335.03
2023-05-16T16:54:22.064Z,89333.47
2023-05-16T16:56:48.925Z,89334.28
2023-05-16T16:59:16.692Z,89345.78
2023-05-16T17:01:43.806Z,89340.09
2023-05-16T17:04:11.604Z,89344.41
2023-05-16T17:06:38.625Z,89341.72
2023-05-16T17:09:05.492Z,89346.84
2023-05-16T17:11:32.751Z,89352.25
2023-05-16T17:13:59.695Z,89351.03
2023-05-16T17:16:26.925Z,89353.63
2023-05-16T17:18:53.831Z,89347.63
2023-05-16T17:21:20.871Z,89351.31
2023-05-16T17:23:48.104Z,89346.78
2023-05-16T17:26:14.975Z,89355.88
2023-05-16T17:28:41.997Z,89349.31
2023-05-16T17:31:08.885Z,89359.16
2023-05-16T17:33:35.778Z,89361.94
2023-05-16T17:36:02.961Z,89361.41
2023-05-16T17:38:29.991Z,89371.19
2023-05-16T17:40:59.072Z,89365.00
2023-05-16T17:43:27.245Z,89365.47
2023-05-16T17:45:54.115Z,89367.13
2023-05-16T17:48:21.011Z,89373.34
2023-05-16T17:50:48.056Z,89374.78
2023-05-16T17:53:18.123Z,89377.72
2023-05-16T17:55:45.275Z,89370.13
2023-05-16T17:58:19.009Z,89381.84
2023-05-16T18:00:46.093Z,89385.09
2023-05-16T18:03:13.302Z,89377.53
2023-05-16T18:05:40.288Z,89386.88
2023-05-16T18:08:08.662Z,89377.84
2023-05-16T18:10:50.287Z,89388.84
2023-05-16T18:13:17.828Z,89397.34
2023-05-16T18:15:44.891Z,89398.25
2023-05-16T18:18:11.877Z,89393.72
2023-05-16T18:20:38.983Z,89396.63
2023-05-16T18:23:05.983Z,89393.53
2023-05-16T18:25:32.910Z,89402.91
2023-05-16T18:27:59.857Z,89399.34
2023-05-16T18:30:27.051Z,89388.47
2023-05-16T18:32:54.103Z,89398.03
2023-05-16T18:35:21.135Z,89396.22
2023-05-16T18:37:48.133Z,89392.59
2023-05-16T18:40:15.054Z,89394.44
2023-05-16T18:42:41.942Z,89396.56
2023-05-16T18:45:09.358Z,89395.78
2023-05-16T18:47:36.304Z,89396.19
2023-05-16T18:50:03.944Z,89392.56
2023-05-16T18:52:31.169Z,89397.06
2023-05-16T18:54:58.065Z,89392.22
2023-05-16T18:57:24.921Z,89394.19
2023-05-16T18:59:54.421Z,89392.75
2023-05-16T19:02:30.254Z,89394.00
2023-05-16T19:05:08.623Z,89394.66
2023-05-16T19:07:35.660Z,89401.50
2023-05-16T19:10:05.812Z,89401.44
2023-05-16T19:12:32.734Z,89395.09
2023-05-16T19:14:59.666Z,89393.06
2023-05-16T19:17:26.717Z,89404.28
2023-05-16T19:19:53.884Z,89406.25
2023-05-16T19:22:20.836Z,89397.78
2023-05-16T19:24:47.706Z,89395.66
2023-05-16T19:27:14.687Z,89392.75
2023-05-16T19:29:41.602Z,89396.28
2023-05-16T19:32:09.277Z,89389.19
2023-05-16T19:34:36.378Z,89393.00
2023-05-16T19:37:03.531Z,89393.72
2023-05-16T19:39:31.579Z,89392.66
2023-05-16T19:42:06.298Z,89393.38
2023-05-16T19:44:34.303Z,89387.41
2023-05-16T19:47:01.271Z,89392.78
2023-05-16T19:49:28.730Z,89382.84
2023-05-16T19:51:55.874Z,89383.97
2023-05-16T19:54:22.861Z,89381.44
2023-05-16T19:56:49.712Z,89373.28
2023-05-16T19:59:17.172Z,89371.88
2023-05-16T20:01:47.068Z,89373.41
2023-05-16T20:04:14.232Z,89373.81
2023-05-16T20:06:41.279Z,89363.63
2023-05-16T20:09:08.440Z,89362.59
2023-05-16T20:11:35.487Z,89362.81
2023-05-16T20:14:02.443Z,89350.84
2023-05-16T20:16:29.559Z,89361.66
2023-05-16T20:18:57.799Z,89355.28
2023-05-16T20:21:24.675Z,89350.34
2023-05-16T20:23:51.733Z,89345.63
2023-05-16T20:26:18.586Z,89347.59
2023-05-16T20:28:45.620Z,89340.56
2023-05-16T20:31:12.749Z,89341.47
2023-05-16T20:33:39.847Z,89339.44
2023-05-16T20:36:07.008Z,89339.97
2023-05-16T20:38:34.133Z,89340.84
2023-05-16T20:41:01.062Z,89339.59
2023-05-16T20:43:27.964Z,89333.78
2023-05-16T20:45:54.908Z,89333.94
2023-05-16T20:48:21.835Z,89335.63
2023-05-16T20:50:48.832Z,89336.66
2023-05-16T20:53:15.800Z,89339.41
2023-05-16T20:55:42.757Z,89326.84
2023-05-16T20:58:09.698Z,89317.09
2023-05-16T21:00:36.826Z,89318.44
2023-05-16T21:03:03.836Z,89325.59
2023-05-16T21:05:30.928Z,89325.22
2023-05-16T21:08:00.915Z,89317.31
2023-05-16T21:10:27.874Z,89315.22
2023-05-16T21:12:54.773Z,89313.16
2023-05-16T21:15:23.121Z,89312.00
2023-05-16T21:17:52.641Z,89306.59
2023-05-16T21:20:19.568Z,89307.72
2023-05-16T21:22:46.508Z,89316.00
2023-05-16T21:25:13.413Z,89318.66
2023-05-16T21:27:40.373Z,89309.31
2023-05-16T21:30:07.988Z,89320.94
2023-05-16T21:32:37.856Z,89313.91
2023-05-16T21:35:05.241Z,89317.88
2023-05-16T21:37:32.298Z,89314.69
2023-05-16T21:39:59.164Z,89305.34
2023-05-16T21:42:26.034Z,89316.53
2023-05-16T21:44:54.733Z,89314.69
2023-05-16T21:47:21.795Z,89307.13
2023-05-16T21:49:48.723Z,89313.28
2023-05-16T21:52:15.632Z,89310.69
2023-05-16T21:54:42.555Z,89306.34
2023-05-16T21:57:09.689Z,89305.94
2023-05-16T21:59:36.619Z,89302.56
2023-05-16T22:02:03.671Z,89297.56
2023-05-16T22:04:30.522Z,89301.16
2023-05-16T22:06:57.440Z,89298.81
2023-05-16T22:09:24.262Z,89289.06
2023-05-16T22:11:51.095Z,89301.69
2023-05-16T22:14:18.157Z,89292.69
2023-05-16T22:16:45.088Z,89291.50
2023-05-16T22:19:12.129Z,89290.00
2023-05-16T22:21:39.143Z,89288.22
2023-05-16T22:24:06.351Z,89291.97
2023-05-16T22:26:33.311Z,89279.94
2023-05-16T22:29:00.190Z,89288.09
2023-05-16T22:31:27.074Z,89282.63
2023-05-16T22:33:53.962Z,89286.56
2023-05-16T22:36:20.983Z,89279.84
2023-05-16T22:38:47.849Z,89289.91
2023-05-16T22:41:14.689Z,89279.19
2023-05-16T22:43:41.692Z,89281.91
2023-05-16T22:46:08.651Z,89284.72
2023-05-16T22:48:35.568Z,89287.53
2023-05-16T22:51:02.639Z,89278.13
2023-05-16T22:53:30.070Z,89281.75
2023-05-16T22:55:56.922Z,89279.03
2023-05-16T22:58:23.877Z,89266.13
2023-05-16T23:00:50.824Z,89277.88
2023-05-16T23:03:17.767Z,89265.91
2023-05-16T23:05:44.812Z,89259.84
2023-05-16T23:08:11.674Z,89252.00
2023-05-16T23:10:38.632Z,89246.31
2023-05-16T23:13:05.622Z,89249.19
2023-05-16T23:15:32.616Z,89248.19
2023-05-16T23:17:59.568Z,89253.34
2023-05-16T23:20:26.553Z,89248.41
2023-05-16T23:22:53.439Z,89247.88
2023-05-16T23:25:20.347Z,89242.59
2023-05-16T23:27:47.269Z,89240.13
2023-05-16T23:30:14.595Z,89238.75
2023-05-16T23:32:41.705Z,89242.09
2023-05-16T23:35:08.936Z,89239.81
2023-05-16T23:37:35.831Z,89244.16
2023-05-16T23:40:02.725Z,89245.09
2023-05-16T23:42:29.748Z,89239.28
2023-05-16T23:44:56.584Z,89239.63
2023-05-16T23:47:23.503Z,89250.59
2023-05-16T23:49:50.613Z,89239.38
2023-05-16T23:52:17.458Z,89243.94
2023-05-16T23:54:44.344Z,89252.97
2023-05-16T23:57:11.518Z,89245.00
2023-05-16T23:59:38.363Z,89242.97
